Time;durP1;ratioP1;P1;durP2;ratioP2;P2;SDS_P1;SDS_P2;PMS_P1;PMS_P2;Temp;Humidity;BMP_temperature;BMP_pressure;BME280_temperature;BME280_humidity;BME280_pressure;Samples;Min_cycle;Max_cycle;Signal;HPM_P1;HPM_P2
2022/06/14 00:01:51;;;;;;;6.72;3.67;;;;;;;10.06;88.24;102389.22;5074986;28;21008;-66
2022/06/14 00:04:17;;;;;;;6.72;2.67;;;;;;;10.13;87.12;102388.94;5074051;28;20036;-65
2022/06/14 00:06:42;;;;;;;11.38;3.85;;;;;;;10.00;86.69;102379.66;5074687;28;20039;-65
2022/06/14 00:09:07;;;;;;;7.80;2.67;;;;;;;9.75;85.50;102387.66;5073182;28;20078;-65
2022/06/14 00:11:36;;;;;;;7.75;3.15;;;;;;;9.69;86.40;102389.66;5073482;28;20048;-65
2022/06/14 00:14:04;;;;;;;6.32;2.78;;;;;;;9.65;86.60;102388.03;5072749;28;20109;-65
2022/06/14 00:16:31;;;;;;;10.18;3.05;;;;;;;9.85;86.79;102386.41;5074233;28;20050;-65
2022/06/14 00:18:58;;;;;;;10.13;2.75;;;;;;;9.92;86.82;102386.19;5073440;28;20151;-65
2022/06/14 00:21:23;;;;;;;9.48;3.78;;;;;;;9.80;88.63;102384.84;5073151;28;20036;-65
2022/06/14 00:23:49;;;;;;;6.20;3.03;;;;;;;9.82;88.59;102383.84;5073988;28;20894;-66
2022/06/14 00:26:15;;;;;;;9.10;3.72;;;;;;;9.89;87.90;102383.63;5073431;28;20051;-65
2022/06/14 00:28:42;;;;;;;8.00;2.90;;;;;;;9.73;87.81;102391.28;5074452;28;20106;-65
2022/06/14 00:31:17;;;;;;;5.30;2.83;;;;;;;9.62;87.55;102383.69;5073053;28;20051;-65
2022/06/14 00:33:43;;;;;;;11.93;2.47;;;;;;;9.66;87.45;102384.44;5074405;28;20633;-65
2022/06/14 00:36:30;;;;;;;7.32;3.42;;;;;;;9.40;87.80;102386.22;5073614;28;20537;-65
2022/06/14 00:39:03;;;;;;;7.40;3.60;;;;;;;9.02;88.75;102398.97;5073868;28;20084;-65
2022/06/14 00:41:37;;;;;;;8.45;3.63;;;;;;;9.16;88.34;102397.66;5073090;28;20028;-65
2022/06/14 00:44:05;;;;;;;5.18;3.15;;;;;;;9.23;88.96;102399.19;5073662;28;20150;-65
2022/06/14 00:46:40;;;;;;;8.43;3.78;;;;;;;9.27;89.60;102392.84;5072128;28;20167;-64
2022/06/14 00:49:15;;;;;;;4.35;3.35;;;;;;;9.26;90.29;102388.47;5065980;28;20051;-65
2022/06/14 00:51:53;;;;;;;7.57;3.55;;;;;;;9.25;90.13;102387.59;5074463;28;20044;-65
2022/06/14 00:54:29;;;;;;;7.95;3.53;;;;;;;9.12;91.56;102386.25;5073928;28;20028;-65
2022/06/14 00:57:04;;;;;;;9.70;3.60;;;;;;;9.27;90.11;102393.72;5074519;28;20285;-65
2022/06/14 00:59:32;;;;;;;8.48;4.57;;;;;;;9.32;89.60;102394.44;5066779;28;20216;-64
2022/06/14 01:02:08;;;;;;;13.23;4.85;;;;;;;9.21;90.25;102388.59;5068713;28;20038;-66
2022/06/14 01:04:34;;;;;;;8.13;3.83;;;;;;;9.19;90.70;102392.25;5074370;28;20051;-67
2022/06/14 01:07:12;;;;;;;8.27;3.83;;;;;;;9.26;90.49;102397.31;5074199;28;20043;-64
2022/06/14 01:09:42;;;;;;;8.23;4.45;;;;;;;9.30;90.30;102387.44;5062913;28;20767;-66
2022/06/14 01:12:11;;;;;;;7.60;3.55;;;;;;;9.33;89.99;102389.97;5074281;28;20036;-66
2022/06/14 01:14:45;;;;;;;13.90;4.22;;;;;;;9.45;89.66;102386.06;5074202;28;20042;-66
2022/06/14 01:17:13;;;;;;;8.85;4.72;;;;;;;9.42;90.01;102389.69;5073617;28;20885;-66
2022/06/14 01:19:39;;;;;;;11.85;4.78;;;;;;;9.15;91.81;102387.94;5074158;28;20042;-65
2022/06/14 01:22:05;;;;;;;5.32;3.67;;;;;;;9.20;92.35;102386.00;5089001;28;20036;-66
2022/06/14 01:24:31;;;;;;;12.27;4.45;;;;;;;9.36;91.25;102383.69;5073456;28;20490;-66
2022/06/14 01:26:58;;;;;;;5.78;3.70;;;;;;;9.31;91.33;102383.84;5072969;28;20815;-66
2022/06/14 01:29:25;;;;;;;7.60;4.22;;;;;;;9.33;91.33;102376.69;5072434;28;20044;-66
2022/06/14 01:31:55;;;;;;;9.95;4.20;;;;;;;9.25;91.13;102376.94;5073076;28;20036;-66
2022/06/14 01:34:22;;;;;;;10.07;3.60;;;;;;;9.17;90.54;102373.66;5071925;28;20052;-66
2022/06/14 01:36:48;;;;;;;6.18;3.35;;;;;;;8.82;90.62;102372.13;5074124;28;20042;-66
2022/06/14 01:39:18;;;;;;;8.73;3.65;;;;;;;8.96;90.17;102372.56;5071909;28;20771;-67
2022/06/14 01:41:52;;;;;;;13.63;4.18;;;;;;;8.86;90.16;102375.56;5073744;28;20093;-66
2022/06/14 01:44:27;;;;;;;10.20;4.25;;;;;;;8.71;91.28;102372.47;5072886;28;20036;-66
2022/06/14 01:47:27;;;;;;;7.28;3.58;;;;;;;8.78;91.01;102376.66;5070716;28;20089;-66
2022/06/14 01:53:18;;;;;;;10.20;3.65;;;;;;;8.82;91.41;102350.84;5072089;28;20040;-66
2022/06/14 01:56:11;;;;;;;6.40;3.53;;;;;;;8.63;91.53;102360.31;5058005;28;20087;-65
2022/06/14 01:58:54;;;;;;;11.07;3.65;;;;;;;8.47;91.77;102355.47;5068774;28;20067;-66
2022/06/14 02:01:38;;;;;;;8.45;3.40;;;;;;;8.63;91.14;102362.97;5071354;28;20135;-67
2022/06/14 02:04:39;;;;;;;10.18;4.53;;;;;;;8.70;90.57;102353.91;5071519;28;20077;-66
2022/06/14 02:07:38;;;;;;;5.30;3.35;;;;;;;8.59;89.74;102353.38;5072006;28;20478;-66
2022/06/14 02:10:08;;;;;;;5.35;3.38;;;;;;;8.52;89.17;102353.53;5062031;28;20066;-66
2022/06/14 02:13:01;;;;;;;9.80;3.50;;;;;;;8.63;90.56;102360.31;5071579;28;20071;-66
2022/06/14 02:15:48;;;;;;;14.15;4.90;;;;;;;8.58;91.22;102349.81;5070732;28;20466;-66
2022/06/14 02:18:32;;;;;;;5.68;3.78;;;;;;;8.46;92.02;102345.75;5071146;28;20602;-66
2022/06/14 02:21:06;;;;;;;6.88;2.92;;;;;;;8.29;90.66;102353.34;5071332;28;20051;-66
2022/06/14 02:23:38;;;;;;;3.60;2.97;;;;;;;8.13;90.97;102355.56;5072758;28;20050;-66
2022/06/14 02:26:07;;;;;;;10.25;3.60;;;;;;;8.02;90.82;102362.97;5066867;28;20139;-66
2022/06/14 02:28:41;;;;;;;5.78;4.07;;;;;;;8.17;91.05;102361.66;5063762;28;20089;-67
2022/06/14 02:31:49;;;;;;;7.88;4.13;;;;;;;8.34;91.79;102345.25;5071166;28;20213;-64
2022/06/14 02:34:20;;;;;;;12.40;4.13;;;;;;;8.35;91.95;102347.84;5069974;28;20171;-66
2022/06/14 02:36:55;;;;;;;8.38;4.18;;;;;;;8.36;92.28;102346.94;5071369;28;20024;-63
2022/06/14 02:39:26;;;;;;;10.88;5.38;;;;;;;8.18;94.49;102342.13;5071053;28;20040;-66
2022/06/14 02:42:00;;;;;;;10.20;4.45;;;;;;;8.22;94.20;102347.31;5071997;28;20036;-66
2022/06/14 02:44:49;;;;;;;7.85;4.20;;;;;;;8.30;93.97;102340.00;5069427;28;20044;-66
2022/06/14 02:47:24;;;;;;;6.60;3.53;;;;;;;8.24;93.59;102349.97;5069623;28;20040;-66
2022/06/14 02:50:02;;;;;;;9.23;4.20;;;;;;;8.24;93.96;102353.47;5070042;28;20102;-66
2022/06/14 02:52:37;;;;;;;8.85;4.20;;;;;;;8.33;93.65;102347.00;5071196;28;20097;-66
2022/06/14 02:55:17;;;;;;;10.30;4.22;;;;;;;8.33;94.28;102336.38;5070783;28;20040;-66
2022/06/14 02:57:54;;;;;;;6.65;4.50;;;;;;;8.28;94.61;102348.91;5071227;28;20036;-66
2022/06/14 03:00:27;;;;;;;7.78;3.72;;;;;;;8.23;93.16;102346.44;5069921;28;20071;-65
2022/06/14 03:03:00;;;;;;;6.63;3.83;;;;;;;8.03;93.14;102338.13;5069525;28;20456;-66
2022/06/14 03:05:51;;;;;;;8.13;3.50;;;;;;;8.03;93.21;102340.78;5067112;28;20044;-66
2022/06/14 03:08:24;;;;;;;8.57;4.03;;;;;;;8.03;92.79;102340.78;5068352;28;20055;-66
2022/06/14 03:11:27;;;;;;;11.80;3.90;;;;;;;8.08;93.55;102338.00;5069562;28;20589;-66
2022/06/14 03:13:58;;;;;;;11.13;4.70;;;;;;;8.03;94.24;102338.13;5070099;28;20439;-66
2022/06/14 03:16:35;;;;;;;6.72;3.88;;;;;;;7.99;92.48;102334.72;5070584;28;20136;-66
2022/06/14 03:19:12;;;;;;;7.15;4.50;;;;;;;8.10;92.11;102338.84;5070902;28;20726;-67
2022/06/14 03:21:46;;;;;;;8.68;3.90;;;;;;;8.13;92.90;102334.31;5071216;28;20040;-66
2022/06/14 03:24:50;;;;;;;6.65;3.83;;;;;;;8.06;92.56;102335.41;5070600;28;20530;-66
2022/06/14 03:27:33;;;;;;;7.38;2.95;;;;;;;8.11;90.86;102340.59;5069048;28;20054;-66
2022/06/14 03:30:09;;;;;;;8.57;4.22;;;;;;;8.09;91.42;102342.44;5070573;28;20361;-66
2022/06/14 03:32:49;;;;;;;7.00;3.60;;;;;;;8.00;90.52;102343.56;5071083;28;20043;-66
2022/06/14 03:35:27;;;;;;;8.48;3.33;;;;;;;8.17;91.17;102337.75;5070165;28;20062;-66
2022/06/14 03:37:55;;;;;;;10.30;4.63;;;;;;;8.23;92.77;102341.13;5070800;28;20047;-65
2022/06/14 03:40:23;;;;;;;14.07;4.20;;;;;;;8.18;93.11;102347.44;5070022;28;20483;-66
2022/06/14 03:42:48;;;;;;;6.28;3.75;;;;;;;8.27;92.65;102337.44;5070397;28;20036;-66
2022/06/14 03:45:20;;;;;;;7.75;3.92;;;;;;;8.22;92.13;102339.34;5068377;28;20978;-66
2022/06/14 03:47:45;;;;;;;7.63;3.17;;;;;;;8.13;91.17;102336.97;5069592;28;20052;-66
2022/06/14 03:50:43;;;;;;;7.88;3.50;;;;;;;8.00;91.97;102339.13;5068372;28;20051;-66
2022/06/14 03:53:31;;;;;;;8.55;3.65;;;;;;;8.17;91.24;102345.72;5024796;28;20144;-66
2022/06/14 03:56:17;;;;;;;6.13;2.75;;;;;;;8.24;90.08;102342.84;5025681;28;20132;-66
2022/06/14 03:58:51;;;;;;;4.47;3.25;;;;;;;8.19;90.61;102335.94;5026502;28;20067;-66
2022/06/14 04:01:23;;;;;;;9.38;3.63;;;;;;;8.20;91.34;102342.97;5027986;28;20084;-66
2022/06/14 04:04:14;;;;;;;6.63;3.50;;;;;;;8.23;91.25;102346.44;5014121;28;20052;-65
2022/06/14 04:06:55;;;;;;;8.88;3.47;;;;;;;8.48;90.85;102337.72;4991914;28;20057;-66
2022/06/14 04:09:50;;;;;;;9.32;3.97;;;;;;;8.56;90.58;102343.69;5030931;28;20130;-66
2022/06/14 04:12:30;;;;;;;8.60;4.18;;;;;;;8.70;90.13;102337.94;5029983;28;20136;-67
2022/06/14 04:15:04;;;;;;;12.45;3.80;;;;;;;8.87;90.83;102343.59;5030365;28;20128;-66
2022/06/14 04:17:45;;;;;;;6.95;4.07;;;;;;;8.90;90.98;102339.97;5016721;28;20052;-66
2022/06/14 04:20:33;;;;;;;3.83;3.00;;;;;;;8.81;89.83;102339.34;5030003;28;20285;-66
2022/06/14 04:23:09;;;;;;;6.38;2.97;;;;;;;8.82;89.95;102343.75;5017795;28;20067;-65
2022/06/14 04:25:57;;;;;;;8.05;3.10;;;;;;;8.95;90.46;102330.94;5030188;28;20997;-66
2022/06/14 04:28:30;;;;;;;10.27;4.05;;;;;;;9.06;91.25;102336.75;5029946;28;20813;-65
2022/06/14 04:31:10;;;;;;;8.60;4.60;;;;;;;9.27;90.63;102331.63;5052512;28;20052;-66
2022/06/14 04:33:46;;;;;;;6.15;3.25;;;;;;;9.45;89.92;102333.69;5073511;28;20776;-66
2022/06/14 04:36:18;;;;;;;8.93;3.80;;;;;;;9.41;90.79;102339.16;5062526;28;20044;-66
2022/06/14 04:38:56;;;;;;;8.98;3.92;;;;;;;9.58;90.35;102344.75;5056531;28;20043;-66
2022/06/14 04:41:29;;;;;;;4.47;3.00;;;;;;;9.76;89.85;102341.44;5069027;28;20949;-66
2022/06/14 04:44:21;;;;;;;9.55;3.97;;;;;;;10.01;89.16;102346.75;5073115;28;20397;-66
2022/06/14 04:46:53;;;;;;;7.72;4.25;;;;;;;10.18;88.51;102347.91;5065916;28;20187;-66
2022/06/14 04:49:37;;;;;;;8.85;3.83;;;;;;;10.25;88.59;102352.16;5053385;28;20070;-66
2022/06/14 04:52:07;;;;;;;12.10;4.13;;;;;;;10.49;87.91;102344.97;5052931;28;20049;-67
2022/06/14 04:54:35;;;;;;;6.25;3.45;;;;;;;12.02;81.97;102350.13;5055274;28;20139;-66
2022/06/14 04:57:14;;;;;;;9.05;4.63;;;;;;;13.68;74.90;102346.50;5068142;28;20166;-66
2022/06/14 04:59:45;;;;;;;13.00;3.78;;;;;;;15.01;69.89;102338.34;5074064;28;20238;-66
2022/06/14 05:02:24;;;;;;;6.77;4.17;;;;;;;16.08;66.39;102339.09;5072289;28;20044;-66
2022/06/14 05:04:59;;;;;;;16.15;4.68;;;;;;;16.64;64.23;102342.66;5073760;28;20227;-66
2022/06/14 05:07:38;;;;;;;6.05;3.63;;;;;;;17.54;60.93;102350.13;5071802;28;20139;-66
2022/06/14 05:10:30;;;;;;;9.52;3.78;;;;;;;17.45;61.52;102343.53;5071626;28;20131;-65
2022/06/14 05:13:05;;;;;;;11.52;3.88;;;;;;;18.23;60.10;102339.94;5063151;28;20803;-65
2022/06/14 05:15:45;;;;;;;5.45;3.35;;;;;;;18.61;59.44;102342.53;5066548;28;20040;-66
2022/06/14 05:18:35;;;;;;;6.50;3.95;;;;;;;18.52;58.89;102338.66;5067254;28;20044;-66
2022/06/14 05:21:08;;;;;;;8.55;3.60;;;;;;;18.58;58.32;102340.09;5068252;28;20109;-65
2022/06/14 05:23:44;;;;;;;7.75;3.25;;;;;;;18.66;58.67;102340.34;5065889;28;20162;-66
2022/06/14 05:26:25;;;;;;;9.82;3.63;;;;;;;18.64;58.20;102342.31;5062430;28;20051;-66
2022/06/14 05:29:15;;;;;;;10.68;3.72;;;;;;;18.25;60.08;102346.06;5065574;28;20802;-66
2022/06/14 05:32:01;;;;;;;14.00;3.10;;;;;;;18.88;58.12;102354.06;5052673;28;20048;-66
2022/06/14 05:34:45;;;;;;;8.52;3.38;;;;;;;18.41;60.36;102345.81;5067435;28;20052;-65
2022/06/14 05:37:26;;;;;;;10.07;3.15;;;;;;;18.92;59.63;102349.25;5068440;28;20777;-64
2022/06/14 05:40:00;;;;;;;9.52;2.80;;;;;;;19.13;58.69;102344.13;5070578;28;20048;-65
2022/06/14 05:42:34;;;;;;;6.32;2.80;;;;;;;19.33;60.16;102348.88;5073034;28;20470;-64
2022/06/14 05:45:02;;;;;;;11.13;3.28;;;;;;;18.66;57.96;102348.47;5064180;28;20123;-65
2022/06/14 05:47:37;;;;;;;12.32;3.00;;;;;;;19.08;58.45;102349.00;5080974;28;20048;-67
2022/06/14 05:50:10;;;;;;;10.90;3.53;;;;;;;19.03;56.93;102351.19;5046023;28;20806;-65
2022/06/14 05:52:44;;;;;;;7.70;3.53;;;;;;;19.98;56.12;102344.75;5067652;28;20036;-65
2022/06/14 05:55:18;;;;;;;11.77;3.33;;;;;;;19.46;57.35;102347.91;5067067;28;20437;-66
2022/06/14 05:57:50;;;;;;;10.95;3.25;;;;;;;19.46;55.65;102348.78;5066827;28;20649;-66
2022/06/14 06:00:22;;;;;;;10.25;3.55;;;;;;;19.93;56.03;102344.25;5064424;28;20487;-66
2022/06/14 06:02:55;;;;;;;14.13;4.50;;;;;;;20.36;55.34;102347.06;5067091;28;20090;-66
2022/06/14 06:05:27;;;;;;;14.05;3.83;;;;;;;20.72;52.93;102344.22;5065613;28;20256;-67
2022/06/14 06:08:14;;;;;;;8.00;3.60;;;;;;;20.12;55.18;102341.78;5060223;28;20138;-67
2022/06/14 06:10:45;;;;;;;7.93;3.15;;;;;;;20.29;54.85;102342.28;5067847;28;20553;-67
2022/06/14 06:13:22;;;;;;;8.23;3.30;;;;;;;20.08;58.06;102350.28;5050649;28;20294;-67
2022/06/14 06:15:56;;;;;;;9.20;2.90;;;;;;;19.41;55.96;102353.69;5063977;28;20047;-66
2022/06/14 06:18:56;;;;;;;8.82;3.38;;;;;;;19.91;56.42;102347.06;5049583;28;20480;-67
2022/06/14 06:21:28;;;;;;;8.65;3.08;;;;;;;19.40;56.20;102354.66;5053549;28;20076;-66
2022/06/14 06:24:19;;;;;;;6.78;2.70;;;;;;;19.76;55.54;102353.69;5050509;28;20909;-67
2022/06/14 06:27:00;;;;;;;12.60;2.97;;;;;;;21.06;49.69;102345.00;5055215;28;20075;-67
2022/06/14 06:29:39;;;;;;;11.23;3.25;;;;;;;20.46;51.73;102343.63;5050055;28;20028;-66
2022/06/14 06:32:07;;;;;;;9.55;2.75;;;;;;;21.43;49.59;102346.34;5049519;28;20044;-67
2022/06/14 06:34:34;;;;;;;5.70;2.67;;;;;;;20.44;53.61;102357.31;5049712;28;20127;-66
2022/06/14 06:37:25;;;;;;;12.23;3.15;;;;;;;20.68;52.54;102352.63;5049733;28;20266;-67
2022/06/14 06:39:56;;;;;;;13.05;2.80;;;;;;;20.64;50.04;102344.88;5056146;28;20042;-67
2022/06/14 06:42:28;;;;;;;7.53;2.80;;;;;;;20.33;51.83;102351.88;5056542;28;20090;-67
2022/06/14 06:44:57;;;;;;;8.63;2.80;;;;;;;20.67;50.75;102360.88;5049565;28;20426;-66
2022/06/14 06:47:55;;;;;;;5.80;2.25;;;;;;;20.82;48.98;102359.59;5050172;28;20562;-66
2022/06/14 06:50:26;;;;;;;7.78;3.00;;;;;;;20.91;48.72;102352.56;5056065;28;20533;-67
2022/06/14 06:53:13;;;;;;;5.63;1.85;;;;;;;20.21;48.35;102356.44;5054716;28;20036;-67
2022/06/14 06:55:59;;;;;;;6.63;1.98;;;;;;;19.49;52.44;102364.78;5060262;28;20679;-67
2022/06/14 06:58:37;;;;;;;8.05;2.30;;;;;;;19.70;53.97;102364.13;5063796;28;20101;-67
2022/06/14 07:01:07;;;;;;;11.40;2.90;;;;;;;20.05;51.22;102364.06;5058216;28;20044;-67
2022/06/14 07:04:01;;;;;;;7.05;1.83;;;;;;;20.18;50.35;102364.81;5069432;28;20883;-67
2022/06/14 07:06:29;;;;;;;7.53;2.10;;;;;;;20.52;49.77;102364.84;5069670;28;20767;-67
2022/06/14 07:09:11;;;;;;;8.10;1.80;;;;;;;21.27;47.50;102370.31;5069848;28;20789;-66
2022/06/14 07:11:47;;;;;;;12.80;2.40;;;;;;;21.10;49.43;102368.19;5070165;28;20507;-66
2022/06/14 07:14:20;;;;;;;5.40;1.67;;;;;;;19.80;53.02;102379.53;5068778;28;20069;-66
2022/06/14 07:17:02;;;;;;;3.67;1.55;;;;;;;19.44;52.98;102374.25;5070146;28;20040;-67
2022/06/14 07:19:49;;;;;;;6.47;2.40;;;;;;;18.87;54.77;102373.06;5069449;28;20097;-66
2022/06/14 07:22:22;;;;;;;5.00;1.50;;;;;;;18.81;56.08;102371.69;5067319;28;20040;-66
2022/06/14 07:24:59;;;;;;;7.15;2.00;;;;;;;18.97;53.52;102374.13;5108299;22;20055;-66
2022/06/14 07:27:33;;;;;;;5.45;1.98;;;;;;;18.68;53.75;102364.59;5046492;28;20049;-65
2022/06/14 07:30:09;;;;;;;4.85;1.42;;;;;;;18.45;55.96;102364.41;5049123;28;20047;-65
2022/06/14 07:32:43;;;;;;;7.22;2.13;;;;;;;19.93;51.65;102365.91;5050000;28;20072;-65
2022/06/14 07:35:09;;;;;;;5.93;1.45;;;;;;;21.07;48.44;102361.13;5049009;28;20040;-65
2022/06/14 07:37:48;;;;;;;10.07;2.30;;;;;;;20.52;48.67;102364.84;5035126;28;20067;-66
2022/06/14 07:40:49;;;;;;;7.40;1.98;;;;;;;21.55;46.88;102357.16;5052484;28;20040;-65
2022/06/14 07:43:32;;;;;;;6.10;1.52;;;;;;;22.59;48.44;102354.31;5028031;28;20080;-65
2022/06/14 07:46:07;;;;;;;5.38;1.85;;;;;;;22.46;45.97;102350.97;5051989;28;20061;-65
2022/06/14 07:48:41;;;;;;;12.43;2.17;;;;;;;22.52;44.65;102358.56;5052498;28;20033;-65
2022/06/14 07:51:25;;;;;;;7.80;2.00;;;;;;;23.06;45.73;102354.56;5051809;28;20119;-65
2022/06/14 07:54:12;;;;;;;9.48;1.98;;;;;;;21.24;47.18;102367.88;5053636;28;20032;-65
2022/06/14 07:57:02;;;;;;;8.20;2.35;;;;;;;20.88;46.91;102363.66;5052998;28;20045;-65
2022/06/14 07:59:34;;;;;;;8.02;2.25;;;;;;;19.79;51.85;102364.28;5033470;28;20048;-65
2022/06/14 08:02:36;;;;;;;7.45;2.08;;;;;;;19.01;54.07;102358.53;5053101;28;20067;-65
2022/06/14 08:05:17;;;;;;;10.10;1.63;;;;;;;18.59;55.39;102366.97;5048996;28;20818;-65
2022/06/14 08:07:46;;;;;;;11.57;2.55;;;;;;;19.07;54.24;102368.88;5040871;28;20045;-65
2022/06/14 08:10:18;;;;;;;6.35;1.55;;;;;;;18.63;55.99;102359.53;5051402;28;20568;-65
2022/06/14 08:12:52;;;;;;;7.72;2.03;;;;;;;19.12;54.82;102367.56;5052685;28;20304;-65
2022/06/14 08:15:25;;;;;;;10.05;2.10;;;;;;;19.27;51.96;102356.56;5052591;28;20827;-66
2022/06/14 08:17:59;;;;;;;6.50;2.13;;;;;;;18.56;54.06;102364.50;5053144;28;20051;-65
2022/06/14 08:20:30;;;;;;;11.82;2.60;;;;;;;18.89;55.59;102358.47;5052399;28;20085;-65
2022/06/14 08:23:01;;;;;;;5.60;1.50;;;;;;;18.81;56.54;102369.00;5046097;28;20079;-65
2022/06/14 08:25:32;;;;;;;5.47;2.03;;;;;;;18.84;54.73;102360.66;5046682;28;20434;-65
2022/06/14 08:28:10;;;;;;;6.43;2.30;;;;;;;18.89;56.38;102358.47;5052792;28;20036;-65
2022/06/14 08:30:43;;;;;;;10.07;2.05;;;;;;;19.12;56.02;102361.28;5052472;28;20335;-65
2022/06/14 08:33:15;;;;;;;2.10;1.33;;;;;;;19.62;51.68;102352.03;5051584;28;20055;-65
2022/06/14 08:35:48;;;;;;;6.10;1.88;;;;;;;19.42;49.84;102353.53;5052043;28;20070;-65
2022/06/14 08:38:19;;;;;;;7.03;1.63;;;;;;;19.18;52.45;102358.16;5050771;28;20048;-65
2022/06/14 08:41:41;;;;;;;8.52;2.00;;;;;;;19.76;53.66;102348.28;5052867;28;20292;-66
2022/06/14 08:44:14;;;;;;;6.00;1.60;;;;;;;21.09;46.49;102342.91;4963865;28;20129;-65
2022/06/14 08:46:50;;;;;;;5.30;1.70;;;;;;;22.13;45.52;102344.81;4970721;28;20046;-65
2022/06/14 08:49:21;;;;;;;9.05;2.00;;;;;;;22.10;48.41;102347.78;4967982;28;20413;-66
2022/06/14 08:52:11;;;;;;;6.63;2.00;;;;;;;22.57;47.24;102345.41;4970738;28;20606;-65
2022/06/14 08:54:43;;;;;;;10.05;1.83;;;;;;;22.66;48.40;102336.41;4969000;28;20054;-65
2022/06/14 08:57:11;;;;;;;9.60;2.05;;;;;;;22.16;41.72;102336.38;4964829;28;20426;-65
2022/06/14 08:59:58;;;;;;;4.95;1.60;;;;;;;22.40;48.96;102338.78;4961734;28;20057;-66
2022/06/14 09:02:26;;;;;;;6.57;1.42;;;;;;;20.40;50.06;102348.56;4955532;28;20692;-65
2022/06/14 09:05:10;;;;;;;9.10;1.85;;;;;;;20.29;50.80;102347.72;4969881;28;20531;-65
2022/06/14 09:08:07;;;;;;;4.68;1.20;;;;;;;19.69;50.07;102347.03;4957419;28;20402;-66
2022/06/14 09:10:43;;;;;;;3.35;1.48;;;;;;;19.58;50.53;102350.56;4951056;28;21046;-65
2022/06/14 09:13:50;;;;;;;4.70;1.15;;;;;;;19.55;51.63;102349.91;4949461;28;20126;-65
2022/06/14 09:16:32;;;;;;;6.93;1.77;;;;;;;19.52;50.62;102350.13;5039408;28;20282;-65
2022/06/14 09:19:14;;;;;;;;;;;;;;;19.28;50.21;102350.19;5048401;28;20072;-65
2022/06/14 09:22:01;;;;;;;5.03;1.43;;;;;;;19.35;50.75;102349.59;5031914;28;20054;-65
2022/06/14 09:24:51;;;;;;;20.55;2.75;;;;;;;19.58;51.29;102349.69;5031213;28;20099;-65
2022/06/14 09:27:42;;;;;;;3.40;1.25;;;;;;;19.64;51.55;102349.25;5030900;28;20052;-65
2022/06/14 09:30:20;;;;;;;2.67;1.15;;;;;;;18.89;51.04;102347.66;5030758;28;20072;-66
2022/06/14 09:33:12;;;;;;;7.32;1.80;;;;;;;19.21;49.43;102348.94;5013942;28;20634;-66
2022/06/14 09:35:59;;;;;;;3.92;1.38;;;;;;;19.04;50.80;102350.22;5031220;28;20145;-65
2022/06/14 09:38:40;;;;;;;5.32;1.70;;;;;;;19.59;50.62;102346.88;5030642;28;20983;-66
2022/06/14 09:41:55;;;;;;;6.68;1.80;;;;;;;21.38;47.15;102345.00;5030864;28;20335;-65
2022/06/14 09:44:20;;;;;;;6.95;1.55;;;;;;;21.76;43.02;102340.88;5030079;28;20474;-65
2022/06/14 09:47:05;;;;;;;5.38;1.90;;;;;;;21.81;45.48;102334.03;5030966;28;20083;-65
2022/06/14 09:50:06;;;;;;;6.68;1.60;;;;;;;21.21;50.66;102338.28;5033960;28;20519;-65
2022/06/14 09:53:09;;;;;;;4.43;1.92;;;;;;;20.87;49.29;102335.69;5043472;28;20041;-65
2022/06/14 09:55:46;;;;;;;10.32;2.38;;;;;;;21.13;45.43;102335.34;5039395;28;20048;-65
2022/06/14 09:58:27;;;;;;;7.13;1.67;;;;;;;21.14;46.01;102331.66;5030337;28;20916;-65
2022/06/14 10:01:33;;;;;;;3.83;1.30;;;;;;;21.38;43.09;102326.00;5035760;28;20360;-65
2022/06/14 10:04:17;;;;;;;4.68;1.58;;;;;;;21.55;44.22;102321.88;5048187;28;20037;-65
2022/06/14 10:06:58;;;;;;;6.88;1.70;;;;;;;21.35;48.25;102326.28;5048774;28;20427;-64
2022/06/14 10:09:51;;;;;;;4.57;1.30;;;;;;;19.63;46.99;102320.47;5035591;28;20630;-65
2022/06/14 10:12:51;;;;;;;3.42;1.77;;;;;;;20.32;44.86;102317.66;5048384;28;20037;-65
2022/06/14 10:15:37;;;;;;;1.92;1.10;;;;;;;20.46;44.56;102320.09;5027154;28;20830;-65
2022/06/14 10:18:08;;;;;;;3.20;1.70;;;;;;;21.95;44.21;102308.38;5036527;28;20032;-65
2022/06/14 10:20:44;;;;;;;5.75;1.65;;;;;;;22.15;43.02;102302.06;5048689;28;20036;-65
2022/06/14 10:23:13;;;;;;;3.40;1.13;;;;;;;22.69;45.05;102305.34;5047920;28;20032;-65
2022/06/14 10:29:13;;;;;;;10.68;1.58;;;;;;;22.07;43.87;102299.13;5047473;28;20045;-65
2022/06/14 10:31:57;;;;;;;9.05;1.63;;;;;;;21.15;49.97;102306.25;5037374;28;20372;-66
2022/06/14 10:34:41;;;;;;;6.22;1.40;;;;;;;21.10;47.08;102301.22;5048561;28;20514;-65
2022/06/14 10:37:29;;;;;;;7.38;1.80;;;;;;;20.86;45.48;102298.72;5048631;28;20093;-64
2022/06/14 10:40:27;;;;;;;2.63;1.45;;;;;;;20.37;46.49;102297.31;5047338;28;20072;-65
2022/06/14 10:43:04;;;;;;;4.72;1.65;;;;;;;19.71;48.82;102296.34;5031629;28;20139;-64
2022/06/14 10:46:07;;;;;;;6.07;1.92;;;;;;;19.50;48.43;102298.00;5046077;28;20032;-66
2022/06/14 10:48:35;;;;;;;8.82;1.80;;;;;;;20.60;51.79;102290.03;5003103;28;20361;-65
2022/06/14 10:51:56;;;;;;;4.63;2.38;;;;;;;20.47;45.68;102289.31;5045414;28;20055;-65
2022/06/14 10:54:42;;;;;;;7.30;1.67;;;;;;;20.55;49.92;102294.13;4982769;28;20044;-65
2022/06/14 10:57:21;;;;;;;4.07;1.50;;;;;;;21.00;45.70;102278.56;4981284;28;20073;-65
2022/06/14 11:00:02;;;;;;;4.63;1.75;;;;;;;20.60;46.21;102278.34;4986875;28;20049;-65
2022/06/14 11:02:50;;;;;;;6.57;1.63;;;;;;;20.99;47.22;102276.00;4985208;28;20050;-65
2022/06/14 11:05:33;;;;;;;4.32;1.98;;;;;;;20.82;44.85;102272.84;4985159;28;20044;-65
2022/06/14 11:08:26;;;;;;;6.82;1.50;;;;;;;19.95;45.86;102277.28;4969530;28;20045;-65
2022/06/14 11:11:10;;;;;;;5.45;1.63;;;;;;;20.77;46.65;102268.78;4984205;28;20042;-65
2022/06/14 11:14:07;;;;;;;3.20;1.40;;;;;;;21.51;43.01;102260.69;4986025;28;20559;-65
2022/06/14 11:16:44;;;;;;;3.80;1.70;;;;;;;21.99;40.70;102252.78;4969595;28;20104;-65
2022/06/14 11:19:39;;;;;;;3.22;1.40;;;;;;;22.97;40.93;102250.13;4984681;28;20770;-65
2022/06/14 11:22:42;;;;;;;5.35;1.42;;;;;;;21.57;41.41;102246.56;4975238;28;20081;-65
2022/06/14 11:25:31;;;;;;;9.18;2.00;;;;;;;21.58;42.38;102241.00;4983043;28;20046;-65
2022/06/14 11:28:13;;;;;;;2.90;1.25;;;;;;;21.64;43.67;102245.91;5004267;28;20066;-65
2022/06/14 11:30:56;;;;;;;4.65;2.10;;;;;;;20.86;44.33;102254.47;5029155;28;20147;-65
2022/06/14 11:33:39;;;;;;;;;;;;;;;21.86;46.47;102246.72;5028653;28;20519;-65
2022/06/14 11:36:15;;;;;;;1.63;1.08;;;;;;;22.69;42.56;102238.25;5028227;28;19967;-65
2022/06/14 11:38:59;;;;;;;5.32;1.40;;;;;;;22.38;42.19;102239.31;5029382;28;20076;-65
2022/06/14 11:41:29;;;;;;;6.05;1.75;;;;;;;22.25;43.62;102227.88;5028221;28;20064;-65
2022/06/14 11:44:08;;;;;;;4.47;1.73;;;;;;;22.95;42.77;102222.22;5028767;28;20121;-65
2022/06/14 11:46:57;;;;;;;4.63;1.70;;;;;;;22.51;45.19;102220.91;5028692;28;20049;-65
2022/06/14 11:49:52;;;;;;;4.55;1.83;;;;;;;20.40;50.11;102233.88;5027820;28;20287;-65
2022/06/14 11:52:29;;;;;;;6.18;2.70;;;;;;;20.81;53.19;102238.59;5026776;28;20498;-65
2022/06/14 11:55:15;;;;;;;11.48;2.55;;;;;;;21.09;49.70;102233.53;5028393;28;20037;-65
2022/06/14 11:57:53;;;;;;;4.80;1.67;;;;;;;20.57;44.26;102230.66;5030336;28;20037;-65
2022/06/14 12:00:23;;;;;;;4.57;1.70;;;;;;;20.03;45.87;102220.66;5043950;28;20091;-65
2022/06/14 12:03:06;;;;;;;7.20;1.95;;;;;;;20.79;49.28;102224.31;5045330;28;20044;-64
2022/06/14 12:05:50;;;;;;;3.33;1.50;;;;;;;21.20;43.64;102211.75;5030536;28;20052;-65
2022/06/14 12:08:31;;;;;;;4.53;1.88;;;;;;;21.78;43.90;102205.78;5027686;28;20049;-65
2022/06/14 12:11:20;;;;;;;7.38;1.58;;;;;;;20.94;47.56;102212.16;5021581;28;20033;-65
2022/06/14 12:14:02;;;;;;;6.00;2.13;;;;;;;20.63;51.29;102223.84;5023313;28;20049;-66
2022/06/14 12:16:45;;;;;;;8.02;2.47;;;;;;;20.28;49.66;102222.22;5035201;28;20036;-65
2022/06/14 12:19:26;;;;;;;4.90;1.55;;;;;;;19.33;48.29;102223.56;5027578;28;20110;-66
2022/06/14 12:21:58;;;;;;;6.70;2.22;;;;;;;20.48;51.68;102225.16;5034080;28;20037;-65
2022/06/14 12:26:34;;;;;;;1.98;1.55;;;;;;;20.69;47.50;102218.81;5040498;28;20059;-66
2022/06/14 12:27:18;;;;;;;5.38;2.10;;;;;;;20.75;45.80;102214.72;5029310;28;20046;-65
2022/06/14 12:29:47;;;;;;;3.83;1.70;;;;;;;20.64;48.31;102221.03;5034334;28;20045;-65